Terminal Aerodrome Forecast
Issued by NWS

Home | Current Version | Previous Version | Text Only | Print | Product List | Glossary On
Versions: 1 2 3 4 5 6 7 8 9 10 11 12 13
779
FTPA31 PHFO 282339
TAFHJH
TAF
PHJH 282339Z 2900/2924 06015G20KT P6SM SCT025 SCT050
     FM290400 07012KT P6SM FEW025 SCT050
     FM292100 06015G20KT P6SM SCT025 SCT050
      AMD NOT SKED AFT 290400=

USA.gov is the U.S. government's official web portal to all federal, state and local government web resources and services.